Time;durP1;ratioP1;P1;durP2;ratioP2;P2;SDS_P1;SDS_P2;PMS_P1;PMS_P2;Temp;Humidity;BMP_temperature;BMP_pressure;BME280_temperature;BME280_humidity;BME280_pressure;Samples;Min_cycle;Max_cycle;Signal;HPM_P1;HPM_P2
2022/02/24 00:00:26;;;;;;;;;;;;;;;-1.63;100.00;96280.06;1039120;28;20402;-71
2022/02/24 00:00:57;;;;;;;;;;;;;;;-1.66;100.00;96276.06;1031387;28;19906;-71
2022/02/24 00:01:27;;;;;;;;;;;;;;;-1.70;100.00;96277.38;1031361;28;19945;-70
2022/02/24 00:01:57;;;;;;;;;;;;;;;-1.69;100.00;96281.56;1031287;28;20645;-70
2022/02/24 00:02:28;;;;;;;;;;;;;;;-1.62;100.00;96280.88;1030631;28;19921;-70
2022/02/24 00:02:58;;;;;;;;;;;;;;;-1.61;100.00;96277.31;1034371;28;19917;-71
2022/02/24 00:03:33;;;;;;;;;;;;;;;-1.66;100.00;96281.22;1033165;28;19910;-70
2022/02/24 00:04:03;;;;;;;;;;;;;;;-1.66;100.00;96281.22;1039116;28;19917;-71
2022/02/24 00:04:33;;;;;;;;;;;;;;;-1.65;100.00;96279.44;1035228;28;19968;-71
2022/02/24 00:05:07;;;;;;;;;;;;;;;-1.63;100.00;96274.13;1036110;28;19914;-70
2022/02/24 00:05:37;;;;;;;;;;;;;;;-1.85;100.00;96240.50;1031379;28;20371;-70
2022/02/24 00:06:07;;;;;;;;;;;;;;;-1.58;100.00;96274.41;1035395;28;19972;-70
2022/02/24 00:06:38;;;;;;;;;;;;;;;-1.59;100.00;96276.19;1035142;28;19959;-69
2022/02/24 00:07:08;;;;;;;;;;;;;;;-1.59;100.00;96270.22;1034977;28;19914;-70
2022/02/24 00:07:38;;;;;;;;;;;;;;;-1.56;100.00;96268.13;1035286;28;20012;-70
2022/02/24 00:08:09;;;;;;;;;;;;;;;-1.52;100.00;96266.00;1034798;28;19931;-70
2022/02/24 00:08:40;;;;;;;;;;;;;;;-1.50;100.00;96264.84;1039167;28;19909;-69
2022/02/24 00:09:10;;;;;;;;;;;;;;;-1.48;100.00;96262.88;1035353;28;19935;-70
2022/02/24 00:09:43;;;;;;;;;;;;;;;-1.47;100.00;96258.56;1034374;28;19910;-67
2022/02/24 00:10:13;;;;;;;;;;;;;;;-1.50;100.00;96261.47;1034736;28;19910;-69
2022/02/24 00:10:44;;;;;;;;;;;;;;;-1.52;100.00;96256.50;1035340;28;19910;-69
2022/02/24 00:11:17;;;;;;;;;;;;;;;-1.55;100.00;96253.47;1031719;28;19918;-71
2022/02/24 00:11:47;;;;;;;;;;;;;;;-1.60;100.00;96254.00;1035400;28;19977;-70
2022/02/24 00:12:19;;;;;;;;;;;;;;;-1.60;100.00;96263.50;1039297;28;20358;-70
2022/02/24 00:12:49;;;;;;;;;;;;;;;-1.60;100.00;96253.22;1039827;28;20408;-70
2022/02/24 00:13:20;;;;;;;;;;;;;;;-1.59;100.00;96262.50;1034922;28;19920;-70
2022/02/24 00:13:50;;;;;;;;;;;;;;;-1.59;100.00;96254.81;1034960;28;19952;-70
2022/02/24 00:14:20;;;;;;;;;;;;;;;-1.61;100.00;96259.31;1034986;28;19988;-70
2022/02/24 00:14:52;;;;;;;;;;;;;;;-1.63;100.00;96248.41;1035188;28;19920;-70
2022/02/24 00:15:23;;;;;;;;;;;;;;;-1.71;100.00;96256.97;1035329;28;19916;-70
2022/02/24 00:15:53;;;;;;;;;;;;;;;-1.75;100.00;96256.50;1035174;28;20075;-70
2022/02/24 00:16:24;;;;;;;;;;;;;;;-1.77;100.00;96258.47;1034840;28;19914;-68
2022/02/24 00:16:54;;;;;;;;;;;;;;;-1.78;100.00;96256.84;1039153;28;19983;-70
2022/02/24 00:17:24;;;;;;;;;;;;;;;-1.76;100.00;96267.78;1039048;28;20476;-70
2022/02/24 00:17:55;;;;;;;;;;;;;;;-1.75;100.00;96264.22;1035023;28;19926;-71
2022/02/24 00:18:25;;;;;;;;;;;;;;;-1.72;100.00;96265.66;1034395;28;19914;-70
2022/02/24 00:18:55;;;;;;;;;;;;;;;-1.73;100.00;96259.72;1031618;28;19914;-70
2022/02/24 00:19:25;;;;;;;;;;;;;;;-1.76;100.00;96264.41;1030620;28;19929;-67
2022/02/24 00:19:56;;;;;;;;;;;;;;;-1.78;100.00;96264.56;1038907;28;19910;-69
2022/02/24 00:20:26;;;;;;;;;;;;;;;-1.82;100.00;96260.75;1042971;28;19956;-70
2022/02/24 00:20:56;;;;;;;;;;;;;;;-1.80;100.00;96266.53;1047505;28;19908;-70
2022/02/24 00:21:27;;;;;;;;;;;;;;;-1.81;100.00;96262.38;1047227;28;19976;-70
2022/02/24 00:21:57;;;;;;;;;;;;;;;-1.81;100.00;96259.81;1043074;28;19973;-70
2022/02/24 00:22:27;;;;;;;;;;;;;;;-1.85;100.00;96266.22;1038825;28;20557;-71
2022/02/24 00:22:58;;;;;;;;;;;;;;;-1.85;100.00;96266.22;1035089;28;19921;-70
2022/02/24 00:23:28;;;;;;;;;;;;;;;-1.85;100.00;96263.66;1030907;28;19936;-70
2022/02/24 00:23:58;;;;;;;;;;;;;;;-1.85;100.00;96265.44;1035046;28;19917;-70
2022/02/24 00:24:29;;;;;;;;;;;;;;;-1.87;100.00;96269.97;1034940;28;19920;-70
2022/02/24 00:24:59;;;;;;;;;;;;;;;-1.88;100.00;96268.34;1035156;28;20327;-71
2022/02/24 00:25:29;;;;;;;;;;;;;;;-1.91;100.00;96272.09;1034952;28;20044;-70
2022/02/24 00:26:00;;;;;;;;;;;;;;;-1.90;100.00;96269.34;1035170;28;19987;-71
2022/02/24 00:26:30;;;;;;;;;;;;;;;-1.92;100.00;96266.13;1034879;28;19910;-69
2022/02/24 00:27:00;;;;;;;;;;;;;;;-1.94;100.00;96267.28;1038997;28;20698;-70
2022/02/24 00:27:31;;;;;;;;;;;;;;;-1.93;100.00;96274.81;1039116;28;19913;-70
2022/02/24 00:28:01;;;;;;;;;;;;;;;-1.94;100.00;96273.22;1035072;28;20343;-70
2022/02/24 00:28:31;;;;;;;;;;;;;;;-1.95;100.00;96270.81;1034769;28;19920;-70
2022/02/24 00:29:02;;;;;;;;;;;;;;;-1.91;100.00;96272.09;1034958;28;19964;-70
2022/02/24 00:29:32;;;;;;;;;;;;;;;-1.87;100.00;96268.19;1030423;28;19914;-70
2022/02/24 00:30:03;;;;;;;;;;;;;;;-1.89;100.00;96267.56;1030850;28;20304;-70
2022/02/24 00:30:33;;;;;;;;;;;;;;;-1.90;100.00;96268.53;1030763;28;19906;-70
2022/02/24 00:31:03;;;;;;;;;;;;;;;-1.86;100.00;96262.06;1030770;28;20587;-70
2022/02/24 00:31:34;;;;;;;;;;;;;;;-1.91;100.00;96267.75;1031069;28;19921;-71
2022/02/24 00:32:05;;;;;;;;;;;;;;;-1.86;100.00;96264.63;1034965;28;19936;-70
2022/02/24 00:32:36;;;;;;;;;;;;;;;-1.90;100.00;96265.97;1035048;28;19914;-70
2022/02/24 00:33:06;;;;;;;;;;;;;;;-1.91;100.00;96264.38;1030552;28;20536;-69
2022/02/24 00:33:38;;;;;;;;;;;;;;;-1.84;100.00;96262.72;1031025;28;19909;-71
2022/02/24 00:34:09;;;;;;;;;;;;;;;-1.86;100.00;96269.78;1031941;28;19918;-70
2022/02/24 00:34:39;;;;;;;;;;;;;;;-1.91;100.00;96262.59;1034801;28;19909;-70
2022/02/24 00:35:11;;;;;;;;;;;;;;;-1.92;100.00;96265.31;1035375;28;19924;-70
2022/02/24 00:35:41;;;;;;;;;;;;;;;-1.86;100.00;96264.63;1038792;28;19920;-70
2022/02/24 00:36:11;;;;;;;;;;;;;;;-1.88;100.00;96271.72;1035210;28;19920;-71
2022/02/24 00:36:42;;;;;;;;;;;;;;;-1.91;100.00;96266.94;1034909;28;20298;-70
2022/02/24 00:37:14;;;;;;;;;;;;;;;-1.90;100.00;96265.97;1034499;28;19924;-71
2022/02/24 00:37:45;;;;;;;;;;;;;;;-1.89;100.00;96259.84;1034749;28;20382;-70
2022/02/24 00:38:15;;;;;;;;;;;;;;;-1.90;100.00;96265.97;1037535;28;19944;-70
2022/02/24 00:38:45;;;;;;;;;;;;;;;-1.91;100.00;96267.75;1033573;28;20417;-70
2022/02/24 00:39:16;;;;;;;;;;;;;;;-1.86;100.00;96261.28;1029824;28;19952;-70
2022/02/24 00:39:46;;;;;;;;;;;;;;;-1.73;100.00;96254.56;1042498;28;19909;-70
2022/02/24 00:40:16;;;;;;;;;;;;;;;-1.78;100.00;96263.78;1039024;28;19910;-71
2022/02/24 00:40:47;;;;;;;;;;;;;;;-1.79;100.00;96268.13;1040722;28;19952;-69
2022/02/24 00:41:18;;;;;;;;;;;;;;;-1.79;100.00;96264.75;1047002;28;19929;-70
2022/02/24 00:41:48;;;;;;;;;;;;;;;-1.68;100.00;96256.63;1041482;28;19913;-70
2022/02/24 00:42:19;;;;;;;;;;;;;;;-1.66;100.00;96265.78;1036434;28;19944;-70
2022/02/24 00:42:49;;;;;;;;;;;;;;;-1.61;100.00;96262.69;1035065;28;19913;-70
2022/02/24 00:43:19;;;;;;;;;;;;;;;-1.61;100.00;96251.59;1038151;28;19913;-70
2022/02/24 00:43:55;;;;;;;;;;;;;;;-1.62;100.00;96250.00;1039104;28;19916;-70
2022/02/24 00:44:26;;;;;;;;;;;;;;;-1.52;100.00;96255.69;1039399;28;20007;-70
2022/02/24 00:44:56;;;;;;;;;;;;;;;-1.44;100.00;96258.22;1034958;28;19961;-71
2022/02/24 00:45:27;;;;;;;;;;;;;;;-1.44;100.00;96260.78;1031396;28;19921;-70
2022/02/24 00:45:57;;;;;;;;;;;;;;;-1.37;100.00;96264.25;1034912;28;19918;-70
2022/02/24 00:46:28;;;;;;;;;;;;;;;-1.28;100.00;96263.19;1034853;28;19914;-70
2022/02/24 00:46:58;;;;;;;;;;;;;;;-1.26;100.00;96263.03;1041613;28;20026;-70
2022/02/24 00:47:31;;;;;;;;;;;;;;;-1.29;100.00;96261.59;1038744;28;19956;-70
2022/02/24 00:48:02;;;;;;;;;;;;;;;-1.28;100.00;96263.19;1040612;28;19913;-70
2022/02/24 00:48:32;;;;;;;;;;;;;;;-1.23;100.00;96266.06;1038881;28;20571;-70
2022/02/24 00:49:03;;;;;;;;;;;;;;;-1.23;100.00;96265.25;1035547;28;19913;-71
2022/02/24 00:49:33;;;;;;;;;;;;;;;-1.16;100.00;96265.38;1034173;28;19913;-70
2022/02/24 00:50:03;;;;;;;;;;;;;;;-1.12;100.00;96262.25;1030542;28;19914;-70
2022/02/24 00:50:34;;;;;;;;;;;;;;;-1.02;100.00;96260.22;1026882;28;19915;-70
2022/02/24 00:51:04;;;;;;;;;;;;;;;-1.01;100.00;96261.00;1022701;28;20040;-70
2022/02/24 00:51:35;;;;;;;;;;;;;;;-1.02;100.00;96262.00;1026590;28;19952;-70
2022/02/24 00:52:08;;;;;;;;;;;;;;;-1.04;100.00;96263.94;1028150;28;19953;-71
2022/02/24 00:52:38;;;;;;;;;;;;;;;-1.04;100.00;96266.50;1035648;28;20410;-70
2022/02/24 00:53:11;;;;;;;;;;;;;;;-0.97;100.00;96270.00;1038942;28;19972;-70
2022/02/24 00:53:41;;;;;;;;;;;;;;;-0.91;100.00;96264.13;1041460;28;19917;-70
2022/02/24 00:54:13;;;;;;;;;;;;;;;-0.89;100.00;96261.38;1043171;28;19916;-70
2022/02/24 00:54:47;;;;;;;;;;;;;;;-0.88;100.00;96263.75;1039198;28;20562;-69
2022/02/24 00:55:17;;;;;;;;;;;;;;;-0.85;100.00;96263.41;1043773;28;19913;-71
2022/02/24 00:55:47;;;;;;;;;;;;;;;-0.83;100.00;96271.78;1038680;28;20367;-71
2022/02/24 00:56:18;;;;;;;;;;;;;;;-0.85;100.00;96265.19;1038913;28;19924;-70
2022/02/24 00:56:48;;;;;;;;;;;;;;;-0.83;100.00;96273.56;1039313;28;19963;-70
2022/02/24 00:57:18;;;;;;;;;;;;;;;-0.82;100.00;96267.41;1042323;28;19948;-70
2022/02/24 00:57:48;;;;;;;;;;;;;;;-0.84;100.00;96265.03;1047157;28;19912;-70
2022/02/24 00:58:19;;;;;;;;;;;;;;;-0.84;100.00;96270.19;1038794;28;20027;-70
2022/02/24 00:58:49;;;;;;;;;;;;;;;-0.85;100.00;96266.00;1038859;28;19958;-70
2022/02/24 00:59:19;;;;;;;;;;;;;;;-0.83;100.00;96266.63;1035019;28;19992;-71
2022/02/24 00:59:50;;;;;;;;;;;;;;;-0.86;100.00;96261.03;1029863;28;19914;-70
2022/02/24 01:00:20;;;;;;;;;;;;;;;-0.85;100.00;96268.56;1034735;28;20303;-70
2022/02/24 01:00:50;;;;;;;;;;;;;;;-0.84;100.00;96264.22;1034842;28;19906;-70
2022/02/24 01:01:21;;;;;;;;;;;;;;;-0.87;100.00;96265.38;1038938;28;19909;-70
2022/02/24 01:01:54;;;;;;;;;;;;;;;-0.88;100.00;96261.19;1038696;28;19956;-70
2022/02/24 01:02:24;;;;;;;;;;;;;;;-0.89;100.00;96261.38;1034824;28;20676;-70
2022/02/24 01:02:58;;;;;;;;;;;;;;;-0.93;100.00;96267.88;1035281;28;19943;-71
2022/02/24 01:03:28;;;;;;;;;;;;;;;-0.93;100.00;96262.72;1035283;28;20482;-70
2022/02/24 01:03:58;;;;;;;;;;;;;;;-0.95;100.00;96263.69;1039409;28;19981;-70
2022/02/24 01:04:28;;;;;;;;;;;;;;;-0.95;100.00;96266.25;1038806;28;19913;-70
2022/02/24 01:04:59;;;;;;;;;;;;;;;-0.90;100.00;96260.59;1038862;28;19956;-70
2022/02/24 01:05:29;;;;;;;;;;;;;;;-0.92;100.00;96259.97;1034712;28;19944;-69
2022/02/24 01:05:59;;;;;;;;;;;;;;;-0.93;100.00;96258.38;1034966;28;20310;-70
2022/02/24 01:06:30;;;;;;;;;;;;;;;-0.94;100.00;96259.31;1038838;28;20613;-71
2022/02/24 01:07:00;;;;;;;;;;;;;;;-0.94;100.00;96259.31;1038929;28;19925;-71
2022/02/24 01:07:30;;;;;;;;;;;;;;;-0.95;100.00;96268.03;1047423;28;19913;-70
2022/02/24 01:08:01;;;;;;;;;;;;;;;-0.95;100.00;96257.72;1038992;28;20366;-70
2022/02/24 01:08:31;;;;;;;;;;;;;;;-0.96;100.00;96254.34;1034490;28;19913;-70
2022/02/24 01:09:04;;;;;;;;;;;;;;;-0.96;100.00;96256.16;1034779;28;19913;-70
2022/02/24 01:09:34;;;;;;;;;;;;;;;-0.97;100.00;96252.78;1030568;28;19920;-71
2022/02/24 01:10:05;;;;;;;;;;;;;;;-0.96;100.00;96254.34;1030871;28;19910;-70
2022/02/24 01:10:35;;;;;;;;;;;;;;;-0.93;100.00;96255.78;1034804;28;19989;-70
2022/02/24 01:11:05;;;;;;;;;;;;;;;-0.94;100.00;96249.03;1034747;28;20394;-70
2022/02/24 01:11:36;;;;;;;;;;;;;;;-0.96;100.00;96258.72;1034719;28;19917;-70
2022/02/24 01:12:06;;;;;;;;;;;;;;;-0.99;100.00;96251.34;1038695;28;19960;-71
2022/02/24 01:12:36;;;;;;;;;;;;;;;-0.99;100.00;96253.91;1034712;28;20504;-71
2022/02/24 01:13:07;;;;;;;;;;;;;;;-0.98;100.00;96248.56;1034811;28;19905;-71
2022/02/24 01:13:37;;;;;;;;;;;;;;;-0.88;100.00;96262.97;1038826;28;20398;-69
2022/02/24 01:14:07;;;;;;;;;;;;;;;-0.93;100.00;96255.00;1030237;28;19918;-70
2022/02/24 01:14:38;;;;;;;;;;;;;;;-0.96;100.00;96256.94;1034752;28;19914;-70
2022/02/24 01:15:08;;;;;;;;;;;;;;;-0.97;100.00;96254.56;1034702;28;19937;-70
2022/02/24 01:15:42;;;;;;;;;;;;;;;-0.98;100.00;96253.72;1030876;28;19918;-70
2022/02/24 01:16:12;;;;;;;;;;;;;;;-0.90;100.00;96257.22;1035106;28;19920;-70
2022/02/24 01:16:42;;;;;;;;;;;;;;;-0.89;100.00;96254.44;1031127;28;20393;-70
2022/02/24 01:17:12;;;;;;;;;;;;;;;-0.91;100.00;96251.25;1035134;28;19920;-70
2022/02/24 01:17:46;;;;;;;;;;;;;;;-0.92;100.00;96254.81;1034813;28;19914;-70
2022/02/24 01:18:16;;;;;;;;;;;;;;;-0.82;100.00;96250.19;1035237;28;19913;-70
2022/02/24 01:18:46;;;;;;;;;;;;;;;-0.81;100.00;96246.63;1038639;28;20022;-70
2022/02/24 01:19:17;;;;;;;;;;;;;;;-0.79;100.00;96247.25;1038912;28;19909;-70
2022/02/24 01:19:48;;;;;;;;;;;;;;;-0.77;100.00;96250.47;1034142;28;19920;-70
2022/02/24 01:20:18;;;;;;;;;;;;;;;-0.79;100.00;96244.69;1035758;28;19920;-70
2022/02/24 01:20:49;;;;;;;;;;;;;;;-0.76;100.00;96244.31;1034654;28;19929;-70
2022/02/24 01:21:19;;;;;;;;;;;;;;;-0.76;100.00;96253.84;1030748;28;19917;-70
2022/02/24 01:21:49;;;;;;;;;;;;;;;-0.74;100.00;96250.09;1026805;28;19914;-70
2022/02/24 01:22:20;;;;;;;;;;;;;;;-0.74;100.00;96246.69;1030226;28;19909;-70
2022/02/24 01:22:50;;;;;;;;;;;;;;;-0.76;100.00;96246.09;1030926;28;19921;-71
2022/02/24 01:23:20;;;;;;;;;;;;;;;-0.72;100.00;96247.34;1034976;28;19964;-70
2022/02/24 01:23:51;;;;;;;;;;;;;;;-0.73;100.00;96246.53;1034464;28;19906;-71
2022/02/24 01:24:21;;;;;;;;;;;;;;;-0.72;100.00;96248.13;1035320;28;19913;-70
2022/02/24 01:24:51;;;;;;;;;;;;;;;-0.64;100.00;96241.28;1034616;28;19929;-70
2022/02/24 01:25:22;;;;;;;;;;;;;;;-0.67;100.00;96251.94;1030581;28;19914;-70
2022/02/24 01:25:52;;;;;;;;;;;;;;;-0.68;100.00;96242.63;1030994;28;20361;-70
2022/02/24 01:26:22;;;;;;;;;;;;;;;-0.72;100.00;96240.41;1033341;28;19975;-70
2022/02/24 01:26:53;;;;;;;;;;;;;;;-0.73;100.00;96249.13;1035295;28;20004;-70
2022/02/24 01:27:23;;;;;;;;;;;;;;;-0.74;100.00;96244.97;1038892;28;19991;-70
2022/02/24 01:27:53;;;;;;;;;;;;;;;-0.76;100.00;96236.59;1043175;28;19909;-71
2022/02/24 01:28:24;;;;;;;;;;;;;;;-0.77;100.00;96240.16;1039366;28;19909;-70
2022/02/24 01:28:54;;;;;;;;;;;;;;;-0.76;100.00;96241.75;1034725;28;19917;-71
2022/02/24 01:29:24;;;;;;;;;;;;;;;-0.72;100.00;96245.56;1034726;28;20373;-71
2022/02/24 01:29:55;;;;;;;;;;;;;;;-0.74;100.00;96237.22;1034951;28;19922;-71
2022/02/24 01:30:28;;;;;;;;;;;;;;;-0.75;100.00;96238.19;1042960;28;19931;-70
2022/02/24 01:30:58;;;;;;;;;;;;;;;-0.75;100.00;96238.19;1047711;28;20322;-69
2022/02/24 01:31:28;;;;;;;;;;;;;;;-0.71;100.00;96243.78;1047157;28;19962;-68
2022/02/24 01:31:58;;;;;;;;;;;;;;;-0.74;100.00;96239.81;1043179;28;19912;-70
2022/02/24 01:32:29;;;;;;;;;;;;;;;-0.75;100.00;96232.22;1038835;28;19913;-70
2022/02/24 01:32:59;;;;;;;;;;;;;;;-0.77;100.00;96240.16;1034855;28;20395;-71
2022/02/24 01:33:29;;;;;;;;;;;;;;;-0.73;100.00;96246.53;1034840;28;19956;-71
2022/02/24 01:34:02;;;;;;;;;;;;;;;-0.77;100.00;96240.16;1035036;28;19914;-71
2022/02/24 01:34:33;;;;;;;;;;;;;;;-0.79;100.00;96241.31;1035178;28;19905;-71
2022/02/24 01:35:03;;;;;;;;;;;;;;;-0.77;100.00;96235.00;1039032;28;19917;-71
2022/02/24 01:35:34;;;;;;;;;;;;;;;-0.68;100.00;96237.47;1034457;28;19924;-70
2022/02/24 01:36:04;;;;;;;;;;;;;;;-0.67;100.00;96232.16;1034753;28;20020;-69
2022/02/24 01:36:37;;;;;;;;;;;;;;;-0.68;100.00;96232.31;1031096;28;19914;-71
2022/02/24 01:37:07;;;;;;;;;;;;;;;-0.71;100.00;96236.84;1035203;28;19949;-71
2022/02/24 01:37:38;;;;;;;;;;;;;;;-0.71;100.00;96238.63;1034670;28;19983;-71
2022/02/24 01:38:08;;;;;;;;;;;;;;;-0.59;100.00;96231.25;1039017;28;19909;-70
2022/02/24 01:38:38;;;;;;;;;;;;;;;-0.64;100.00;96239.50;1038927;28;19936;-70
2022/02/24 01:39:09;;;;;;;;;;;;;;;-0.65;100.00;96243.06;1034756;28;19909;-70
2022/02/24 01:39:39;;;;;;;;;;;;;;;-0.67;100.00;96231.31;1030060;28;19920;-70
2022/02/24 01:40:12;;;;;;;;;;;;;;;-0.69;100.00;96238.47;1030755;28;19921;-70
2022/02/24 01:40:45;;;;;;;;;;;;;;;-0.72;100.00;96234.47;1032464;28;20024;-70
2022/02/24 01:41:16;;;;;;;;;;;;;;;-0.78;100.00;96225.66;1038618;28;19930;-71
2022/02/24 01:41:48;;;;;;;;;;;;;;;-0.80;100.00;96227.63;1038858;28;19917;-69
2022/02/24 01:42:18;;;;;;;;;;;;;;;-0.80;100.00;96221.69;1034750;28;19913;-68
2022/02/24 01:42:48;;;;;;;;;;;;;;;-0.81;100.00;96222.63;1031360;28;20983;-70
2022/02/24 01:43:19;;;;;;;;;;;;;;;-0.83;100.00;96220.25;1031379;28;19980;-70
2022/02/24 01:43:49;;;;;;;;;;;;;;;-0.83;100.00;96220.25;1030841;28;19920;-70
2022/02/24 01:44:22;;;;;;;;;;;;;;;-0.80;100.00;96217.31;1035291;28;20485;-71
2022/02/24 01:44:52;;;;;;;;;;;;;;;-0.80;100.00;96219.91;1031465;28;19945;-71
2022/02/24 01:45:25;;;;;;;;;;;;;;;-0.79;100.00;96221.50;1031175;28;19906;-71
2022/02/24 01:45:56;;;;;;;;;;;;;;;-0.64;100.00;96218.09;1030686;28;19948;-71
2022/02/24 01:46:26;;;;;;;;;;;;;;;-0.67;100.00;96219.28;1031143;28;19965;-71
2022/02/24 01:46:56;;;;;;;;;;;;;;;-0.67;100.00;96214.13;1029390;28;19953;-70
2022/02/24 01:47:27;;;;;;;;;;;;;;;-0.67;100.00;96215.88;1030930;28;19914;-71
2022/02/24 01:47:58;;;;;;;;;;;;;;;-0.65;100.00;96219.88;1038774;28;20576;-69
2022/02/24 01:48:29;;;;;;;;;;;;;;;-0.71;100.00;96207.69;1039089;28;19905;-71
2022/02/24 01:48:59;;;;;;;;;;;;;;;-0.68;100.00;96212.50;1039164;28;19913;-71
2022/02/24 01:49:29;;;;;;;;;;;;;;;-0.67;100.00;96215.88;1038067;28;19919;-70
2022/02/24 01:50:00;;;;;;;;;;;;;;;-0.68;100.00;96211.72;1034974;28;19969;-70
2022/02/24 01:50:30;;;;;;;;;;;;;;;-0.67;100.00;96213.28;1030872;28;19916;-71
2022/02/24 01:51:03;;;;;;;;;;;;;;;-0.68;100.00;96217.66;1030988;28;19962;-71
2022/02/24 01:51:34;;;;;;;;;;;;;;;-0.72;100.00;96209.47;1026624;28;19992;-70
2022/02/24 01:52:04;;;;;;;;;;;;;;;-0.72;100.00;96206.13;1022805;28;19930;-71
2022/02/24 01:52:34;;;;;;;;;;;;;;;-0.92;100.00;96182.69;1026857;28;19917;-71
2022/02/24 01:53:05;;;;;;;;;;;;;;;-0.73;100.00;96209.69;1030934;28;19902;-70
2022/02/24 01:53:35;;;;;;;;;;;;;;;-0.71;100.00;96213.66;1034917;28;19909;-69
2022/02/24 01:54:06;;;;;;;;;;;;;;;-0.73;100.00;96207.91;1038652;28;19909;-70
2022/02/24 01:54:36;;;;;;;;;;;;;;;-0.72;100.00;96206.91;1039415;28;20477;-69
2022/02/24 01:55:07;;;;;;;;;;;;;;;-0.62;100.00;96211.00;1039661;28;19948;-70
2022/02/24 01:55:37;;;;;;;;;;;;;;;-0.66;100.00;96209.75;1042549;28;19916;-71
2022/02/24 01:56:07;;;;;;;;;;;;;;;-0.68;100.00;96207.34;1043565;28;19935;-71
2022/02/24 01:56:38;;;;;;;;;;;;;;;-0.68;100.00;96216.84;1043671;28;19986;-70
2022/02/24 01:57:08;;;;;;;;;;;;;;;-0.68;100.00;96211.72;1044032;28;19913;-70
2022/02/24 01:57:38;;;;;;;;;;;;;;;-0.73;100.00;96213.03;1039363;28;19912;-71
2022/02/24 01:58:09;;;;;;;;;;;;;;;-0.74;100.00;96208.06;1039086;28;19929;-71
2022/02/24 01:58:39;;;;;;;;;;;;;;;-0.73;100.00;96213.03;1035600;28;20395;-70
2022/02/24 01:59:09;;;;;;;;;;;;;;;-0.68;100.00;96203.97;1031557;28;19917;-71
2022/02/24 01:59:39;;;;;;;;;;;;;;;-0.66;100.00;96204.59;1031252;28;19910;-72
2022/02/24 02:00:10;;;;;;;;;;;;;;;-0.64;100.00;96208.56;1027361;28;20384;-71
2022/02/24 02:00:41;;;;;;;;;;;;;;;-0.61;100.00;96210.00;1027532;28;20466;-70
2022/02/24 02:01:11;;;;;;;;;;;;;;;-0.59;100.00;96205.47;1027437;28;20395;-70
2022/02/24 02:01:41;;;;;;;;;;;;;;;-0.62;100.00;96204.06;1029285;28;19933;-69
2022/02/24 02:02:13;;;;;;;;;;;;;;;-0.63;100.00;96201.66;1027347;28;19942;-69
2022/02/24 02:02:43;;;;;;;;;;;;;;;-0.63;100.00;96201.66;1027637;28;20009;-70
2022/02/24 02:03:13;;;;;;;;;;;;;;;-0.64;100.00;96207.78;1035731;28;19913;-69
2022/02/24 02:03:44;;;;;;;;;;;;;;;-0.67;100.00;96198.66;1039896;28;19919;-70
2022/02/24 02:04:15;;;;;;;;;;;;;;;-0.69;100.00;96200.59;1039604;28;19909;-71
2022/02/24 02:04:46;;;;;;;;;;;;;;;-0.72;100.00;96196.59;1035410;28;19917;-71
2022/02/24 02:05:16;;;;;;;;;;;;;;;-0.73;100.00;96202.75;1035519;28;19957;-70
2022/02/24 02:05:48;;;;;;;;;;;;;;;-0.75;100.00;96196.16;1035836;28;20411;-71
2022/02/24 02:06:18;;;;;;;;;;;;;;;-0.79;100.00;96203.47;1040082;28;19913;-70
2022/02/24 02:06:48;;;;;;;;;;;;;;;-0.81;100.00;96199.44;1039518;28;20836;-70
2022/02/24 02:07:19;;;;;;;;;;;;;;;-0.83;100.00;96204.00;1039603;28;20329;-70
2022/02/24 02:07:49;;;;;;;;;;;;;;;-0.86;100.00;96200.00;1035460;28;19905;-70
2022/02/24 02:08:19;;;;;;;;;;;;;;;-0.88;100.00;96206.31;1035278;28;19921;-70
2022/02/24 02:08:50;;;;;;;;;;;;;;;-0.87;100.00;96203.56;1031361;28;19925;-70
2022/02/24 02:09:20;;;;;;;;;;;;;;;-0.90;100.00;96200.56;1031570;28;19922;-70
2022/02/24 02:09:51;;;;;;;;;;;;;;;-0.91;100.00;96202.31;1034758;28;19973;-70
2022/02/24 02:10:21;;;;;;;;;;;;;;;-0.93;100.00;96206.84;1035523;28;20482;-69
2022/02/24 02:10:51;;;;;;;;;;;;;;;-0.94;100.00;96202.66;1039405;28;19996;-70
2022/02/24 02:11:21;;;;;;;;;;;;;;;-0.97;100.00;96205.63;1039608;28;19913;-70
2022/02/24 02:11:52;;;;;;;;;;;;;;;-1.00;100.00;96200.81;1043572;28;19970;-70
2022/02/24 02:12:22;;;;;;;;;;;;;;;-1.00;100.00;96201.63;1043759;28;19917;-69
2022/02/24 02:12:56;;;;;;;;;;;;;;;-0.99;100.00;96202.41;1043487;28;19944;-70
2022/02/24 02:13:26;;;;;;;;;;;;;;;-0.99;100.00;96194.69;1039342;28;19924;-70
2022/02/24 02:14:05;;;;;;;;;;;;;;;-1.03;100.00;96194.25;1039699;28;19924;-70
2022/02/24 02:14:36;;;;;;;;;;;;;;;-1.05;100.00;96201.34;1039708;28;19967;-71
2022/02/24 02:15:06;;;;;;;;;;;;;;;-1.06;100.00;96202.31;1038122;28;20704;-69
2022/02/24 02:15:37;;;;;;;;;;;;;;;-1.08;100.00;96190.59;1045621;28;19921;-70
2022/02/24 02:16:07;;;;;;;;;;;;;;;-1.09;100.00;96207.03;1043931;28;19928;-70
2022/02/24 02:16:44;;;;;;;;;;;;;;;-1.08;100.00;96206.84;1035589;28;19909;-71
2022/02/24 02:17:14;;;;;;;;;;;;;;;-1.07;100.00;96197.38;1030483;28;20000;-70
2022/02/24 02:17:45;;;;;;;;;;;;;;;-1.10;100.00;96198.50;1031058;28;20399;-69
2022/02/24 02:18:15;;;;;;;;;;;;;;;-1.14;100.00;96206.75;1035559;28;19947;-70
2022/02/24 02:18:45;;;;;;;;;;;;;;;-1.17;100.00;96202.78;1031491;28;20462;-71
2022/02/24 02:19:19;;;;;;;;;;;;;;;-1.22;100.00;96195.56;1039506;28;19921;-70
2022/02/24 02:19:49;;;;;;;;;;;;;;;-1.19;100.00;96200.38;1039373;28;20538;-70
2022/02/24 02:20:20;;;;;;;;;;;;;;;-1.20;100.00;96196.19;1036609;28;19952;-70
2022/02/24 02:20:51;;;;;;;;;;;;;;;-1.22;100.00;96193.00;1039648;28;20038;-71
2022/02/24 02:21:21;;;;;;;;;;;;;;;-1.21;100.00;96191.22;1031130;28;19918;-70
2022/02/24 02:21:52;;;;;;;;;;;;;;;-1.20;100.00;96187.69;1031702;28;19918;-70
2022/02/24 02:22:25;;;;;;;;;;;;;;;-1.20;100.00;96192.81;1035290;28;19949;-70
2022/02/24 02:22:55;;;;;;;;;;;;;;;-1.22;100.00;96195.56;1036125;28;19925;-70
2022/02/24 02:23:25;;;;;;;;;;;;;;;-1.16;100.00;96194.06;1039772;28;19960;-70
2022/02/24 02:23:56;;;;;;;;;;;;;;;-1.19;100.00;96194.41;1043995;28;19972;-70
2022/02/24 02:24:27;;;;;;;;;;;;;;;-1.21;100.00;96194.63;1039707;28;19913;-70
2022/02/24 02:24:58;;;;;;;;;;;;;;;-1.19;100.00;96184.91;1035745;28;20371;-71
2022/02/24 02:25:29;;;;;;;;;;;;;;;-1.09;100.00;96183.84;1030898;28;20013;-71
2022/02/24 02:25:59;;;;;;;;;;;;;;;-1.14;100.00;96186.16;1027369;28;20323;-70
2022/02/24 02:26:31;;;;;;;;;;;;;;;-1.14;100.00;96191.31;1031803;28;19922;-71
2022/02/24 02:27:02;;;;;;;;;;;;;;;-1.14;100.00;96181.00;1031623;28;19981;-70
2022/02/24 02:27:33;;;;;;;;;;;;;;;-1.13;100.00;96182.63;1031789;28;19921;-70
2022/02/24 02:28:03;;;;;;;;;;;;;;;-1.09;100.00;96186.44;1035474;28;20004;-71
2022/02/24 02:28:33;;;;;;;;;;;;;;;-1.09;100.00;96183.84;1036396;28;19913;-70
2022/02/24 02:29:10;;;;;;;;;;;;;;;-1.09;100.00;96178.72;1035224;28;19925;-69
2022/02/24 02:29:40;;;;;;;;;;;;;;;-1.12;100.00;96179.84;1030334;28;20295;-70
2022/02/24 02:30:11;;;;;;;;;;;;;;;-1.11;100.00;96180.66;1031396;28;19937;-70
2022/02/24 02:30:44;;;;;;;;;;;;;;;-1.12;100.00;96184.22;1033813;28;19922;-69
2022/02/24 02:31:18;;;;;;;;;;;;;;;-1.10;100.00;96182.28;1039789;28;19920;-69
2022/02/24 02:31:49;;;;;;;;;;;;;;;-1.09;100.00;96178.72;1031252;28;19918;-70
2022/02/24 02:32:19;;;;;;;;;;;;;;;-1.11;100.00;96186.59;1033186;28;19960;-70
2022/02/24 02:32:49;;;;;;;;;;;;;;;-1.13;100.00;96178.25;1032180;28;19918;-70
2022/02/24 02:33:20;;;;;;;;;;;;;;;-1.13;100.00;96180.84;1023449;28;19969;-70
2022/02/24 02:33:50;;;;;;;;;;;;;;;-1.16;100.00;96175.25;1023352;28;19999;-69
2022/02/24 02:34:20;;;;;;;;;;;;;;;-1.17;100.00;96181.34;1027536;28;19917;-70
2022/02/24 02:34:51;;;;;;;;;;;;;;;-1.14;100.00;96178.44;1031422;28;19948;-70
2022/02/24 02:35:21;;;;;;;;;;;;;;;-1.13;100.00;96177.47;1043782;28;20015;-70
2022/02/24 02:35:51;;;;;;;;;;;;;;;-1.14;100.00;96181.81;1039228;28;19925;-70
2022/02/24 02:36:22;;;;;;;;;;;;;;;-1.16;100.00;96173.47;1035557;28;19925;-69
2022/02/24 02:36:52;;;;;;;;;;;;;;;-1.16;100.00;96178.63;1035522;28;20295;-68
2022/02/24 02:37:22;;;;;;;;;;;;;;;-1.15;100.00;96175.06;1031487;28;19933;-70
2022/02/24 02:37:52;;;;;;;;;;;;;;;-1.17;100.00;96173.63;1031345;28;19918;-69